Time;durP1;ratioP1;P1;durP2;ratioP2;P2;SDS_P1;SDS_P2;PMS_P1;PMS_P2;Temp;Humidity;BMP_temperature;BMP_pressure;BME280_temperature;BME280_humidity;BME280_pressure;Samples;Min_cycle;Max_cycle;Signal;HPM_P1;HPM_P2
2021/10/21 00:00:54;;;;;;;;;;;7.70;99.90;;;;;;5097099;28;19924;-70
2021/10/21 00:03:21;;;;;;;;;;;7.70;99.90;;;;;;5097260;28;20385;-71
2021/10/21 00:05:48;;;;;;;;;;;7.60;99.90;;;;;;5096963;28;19928;-70
2021/10/21 00:08:15;;;;;;;;;;;7.60;99.90;;;;;;5096936;28;19963;-70
2021/10/21 00:10:45;;;;;;;;;;;7.60;99.90;;;;;;5097038;28;19923;-70
2021/10/21 00:13:12;;;;;;;;;;;7.60;99.90;;;;;;5097328;28;19935;-70
2021/10/21 00:15:39;;;;;;;;;;;7.60;99.90;;;;;;5096748;28;19924;-70
2021/10/21 00:18:06;;;;;;;;;;;7.60;99.90;;;;;;5096785;28;19928;-70
2021/10/21 00:20:33;;;;;;;;;;;7.60;99.90;;;;;;5096898;28;19924;-70
2021/10/21 00:22:59;;;;;;;;;;;7.50;99.90;;;;;;5096615;28;20366;-70
2021/10/21 00:25:26;;;;;;;;;;;7.50;99.90;;;;;;5096694;28;19924;-71
2021/10/21 00:27:55;;;;;;;;;;;7.50;99.90;;;;;;5096537;28;20348;-70
2021/10/21 00:30:21;;;;;;;;;;;7.50;99.90;;;;;;5096899;28;19935;-71
2021/10/21 00:32:48;;;;;;;;;;;7.40;99.90;;;;;;5096727;28;19924;-71
2021/10/21 00:35:15;;;;;;;;;;;7.30;99.90;;;;;;5096420;28;20351;-71
2021/10/21 00:37:42;;;;;;;;;;;7.30;99.90;;;;;;5096344;28;19924;-70
2021/10/21 00:40:09;;;;;;;;;;;7.20;99.90;;;;;;5096403;28;19924;-71
2021/10/21 00:42:36;;;;;;;;;;;7.20;99.90;;;;;;5095735;28;19931;-71
2021/10/21 00:45:05;;;;;;;;;;;7.20;99.90;;;;;;5096289;28;19931;-71
2021/10/21 00:47:32;;;;;;;;;;;7.20;99.90;;;;;;5096181;28;19934;-71
2021/10/21 00:49:58;;;;;;;;;;;7.30;99.90;;;;;;5096495;28;19928;-71
2021/10/21 00:52:25;;;;;;;;;;;7.40;99.90;;;;;;5096374;28;20014;-71
2021/10/21 00:54:54;;;;;;;;;;;7.40;99.90;;;;;;5095520;28;20198;-70
2021/10/21 00:57:21;;;;;;;;;;;7.50;99.90;;;;;;5095975;28;20356;-71
2021/10/21 00:59:48;;;;;;;;;;;7.60;99.90;;;;;;5095865;28;20541;-71
2021/10/21 01:02:16;;;;;;;;;;;7.60;99.90;;;;;;5095912;28;19928;-71
2021/10/21 01:04:43;;;;;;;;;;;7.70;99.90;;;;;;5096103;28;19934;-71
2021/10/21 01:07:09;;;;;;;;;;;7.70;99.90;;;;;;5096221;28;19934;-70
2021/10/21 01:09:36;;;;;;;;;;;7.80;99.90;;;;;;5095797;28;19924;-71
2021/10/21 01:12:04;;;;;;;;;;;7.90;99.90;;;;;;5095802;28;20014;-70
2021/10/21 01:14:31;;;;;;;;;;;8.00;99.90;;;;;;5095762;28;19935;-70
2021/10/21 01:16:58;;;;;;;;;;;8.00;99.90;;;;;;5095801;28;19928;-71
2021/10/21 01:19:26;;;;;;;;;;;8.10;99.90;;;;;;5095856;28;19924;-70
2021/10/21 01:21:54;;;;;;;;;;;8.20;99.90;;;;;;5095535;28;20351;-71
2021/10/21 01:24:21;;;;;;;;;;;8.20;99.90;;;;;;5095768;28;19924;-71
2021/10/21 01:26:49;;;;;;;;;;;8.20;99.90;;;;;;5095520;28;20271;-71
2021/10/21 01:29:16;;;;;;;;;;;8.30;99.90;;;;;;5095740;28;19934;-71
2021/10/21 01:31:43;;;;;;;;;;;8.30;99.90;;;;;;5095926;28;19924;-71
2021/10/21 01:34:10;;;;;;;;;;;8.30;99.90;;;;;;5095545;28;20033;-71
2021/10/21 01:36:36;;;;;;;;;;;8.30;99.90;;;;;;5095438;28;19934;-71
2021/10/21 01:39:05;;;;;;;;;;;8.30;99.90;;;;;;5095459;28;19934;-71
2021/10/21 01:41:32;;;;;;;;;;;8.30;99.90;;;;;;5095268;28;19924;-71
2021/10/21 01:43:59;;;;;;;;;;;8.30;99.90;;;;;;5095386;28;20168;-71
2021/10/21 01:46:26;;;;;;;;;;;8.40;99.90;;;;;;5095580;28;20344;-71
2021/10/21 01:48:52;;;;;;;;;;;8.40;99.90;;;;;;5095196;28;19924;-71
2021/10/21 01:51:19;;;;;;;;;;;8.40;99.90;;;;;;5095247;28;19934;-71
2021/10/21 01:53:46;;;;;;;;;;;8.40;99.90;;;;;;5095050;28;19932;-70
2021/10/21 01:56:14;;;;;;;;;;;8.50;99.90;;;;;;5095761;28;20255;-71
2021/10/21 01:58:41;;;;;;;;;;;8.50;99.90;;;;;;5095300;28;19935;-71
2021/10/21 02:01:08;;;;;;;;;;;8.50;99.90;;;;;;5095217;28;19934;-71
2021/10/21 02:03:35;;;;;;;;;;;8.60;99.90;;;;;;5095237;28;20275;-71
2021/10/21 02:06:02;;;;;;;;;;;8.60;99.90;;;;;;5095301;28;19924;-71
2021/10/21 02:08:29;;;;;;;;;;;8.70;99.90;;;;;;5095047;28;19947;-71
2021/10/21 02:10:55;;;;;;;;;;;8.80;99.90;;;;;;5094974;28;19928;-71
2021/10/21 02:13:24;;;;;;;;;;;8.80;99.90;;;;;;5095204;28;19924;-71
2021/10/21 02:15:50;;;;;;;;;;;8.80;99.90;;;;;;5095245;28;19925;-71
2021/10/21 02:18:18;;;;;;;;;;;8.90;99.90;;;;;;5095087;28;19924;-71
2021/10/21 02:20:45;;;;;;;;;;;8.90;99.90;;;;;;5094889;28;19958;-71
2021/10/21 02:23:11;;;;;;;;;;;8.90;99.90;;;;;;5095004;28;19934;-71
2021/10/21 02:25:39;;;;;;;;;;;8.90;99.90;;;;;;5095310;28;20359;-71
2021/10/21 02:28:06;;;;;;;;;;;8.90;99.90;;;;;;5095363;28;19924;-71
2021/10/21 02:30:34;;;;;;;;;;;8.90;99.90;;;;;;5094850;28;19935;-71
2021/10/21 02:33:01;;;;;;;;;;;8.80;99.90;;;;;;5094746;28;19924;-71
2021/10/21 02:35:27;;;;;;;;;;;8.70;99.90;;;;;;5095084;28;19932;-71
2021/10/21 02:37:54;;;;;;;;;;;8.80;99.90;;;;;;5095015;28;20279;-71
2021/10/21 02:40:21;;;;;;;;;;;8.70;99.90;;;;;;5094670;28;19925;-71
2021/10/21 02:42:48;;;;;;;;;;;8.70;99.90;;;;;;5094668;28;19928;-71
2021/10/21 02:45:15;;;;;;;;;;;8.70;99.90;;;;;;5094826;28;19924;-71
2021/10/21 02:47:44;;;;;;;;;;;8.70;99.90;;;;;;5095083;28;20310;-71
2021/10/21 02:50:11;;;;;;;;;;;8.70;99.90;;;;;;5094613;28;20018;-71
2021/10/21 02:52:38;;;;;;;;;;;8.70;99.90;;;;;;5094404;28;19924;-71
2021/10/21 02:55:05;;;;;;;;;;;8.70;99.90;;;;;;5094844;28;20276;-71
2021/10/21 02:57:32;;;;;;;;;;;8.70;99.90;;;;;;5094746;28;19935;-71
2021/10/21 02:59:58;;;;;;;;;;;8.70;99.90;;;;;;5094780;28;20269;-71
2021/10/21 03:02:25;;;;;;;;;;;8.70;99.90;;;;;;5094569;28;19924;-71
2021/10/21 03:04:53;;;;;;;;;;;8.70;99.90;;;;;;5094553;28;19924;-71
2021/10/21 03:07:20;;;;;;;;;;;8.70;99.90;;;;;;5098452;28;19934;-71
2021/10/21 03:09:47;;;;;;;;;;;8.60;99.90;;;;;;5098379;28;19924;-71
2021/10/21 03:12:14;;;;;;;;;;;8.50;99.90;;;;;;5098436;28;19924;-71
2021/10/21 03:14:41;;;;;;;;;;;8.50;99.90;;;;;;5098073;28;19931;-71
2021/10/21 03:17:09;;;;;;;;;;;8.50;99.90;;;;;;5098127;28;19930;-71
2021/10/21 03:19:36;;;;;;;;;;;8.50;99.90;;;;;;5097990;28;19932;-71
2021/10/21 03:22:04;;;;;;;;;;;8.40;99.90;;;;;;5098358;28;19924;-71
2021/10/21 03:24:31;;;;;;;;;;;8.40;99.90;;;;;;5098197;28;19924;-71
2021/10/21 03:26:58;;;;;;;;;;;8.40;99.90;;;;;;5097898;28;20353;-71
2021/10/21 03:29:25;;;;;;;;;;;8.30;99.90;;;;;;5097879;28;19934;-71
2021/10/21 03:31:52;;;;;;;;;;;8.20;99.90;;;;;;5097805;28;19942;-71
2021/10/21 03:34:19;;;;;;;;;;;8.10;99.90;;;;;;5097581;28;19934;-70
2021/10/21 03:36:46;;;;;;;;;;;8.00;99.90;;;;;;5097857;28;20340;-70
2021/10/21 03:39:14;;;;;;;;;;;8.00;99.90;;;;;;5098068;28;19924;-71
2021/10/21 03:41:41;;;;;;;;;;;8.00;99.90;;;;;;5097372;28;19924;-71
2021/10/21 03:44:07;;;;;;;;;;;8.00;99.90;;;;;;5097683;28;20098;-71
2021/10/21 03:46:36;;;;;;;;;;;8.00;99.90;;;;;;5097548;28;20356;-71
2021/10/21 03:49:03;;;;;;;;;;;8.00;99.90;;;;;;5097378;28;20011;-71
2021/10/21 03:51:30;;;;;;;;;;;8.00;99.90;;;;;;5097561;28;19974;-71
2021/10/21 03:53:57;;;;;;;;;;;8.00;99.90;;;;;;5097357;28;20238;-71
2021/10/21 03:56:25;;;;;;;;;;;8.00;99.90;;;;;;5097349;28;19924;-71
2021/10/21 03:58:52;;;;;;;;;;;8.00;99.90;;;;;;5097327;28;19924;-71
2021/10/21 04:01:19;;;;;;;;;;;8.00;99.90;;;;;;5097288;28;19928;-71
2021/10/21 04:03:46;;;;;;;;;;;7.90;99.90;;;;;;5097333;28;19939;-71
2021/10/21 04:06:13;;;;;;;;;;;7.90;99.90;;;;;;5097257;28;20372;-70
2021/10/21 04:08:39;;;;;;;;;;;7.80;99.90;;;;;;5097053;28;19928;-70
2021/10/21 04:11:06;;;;;;;;;;;7.70;99.90;;;;;;5097538;28;19924;-71
2021/10/21 04:13:34;;;;;;;;;;;7.70;99.90;;;;;;5097033;28;19924;-70
2021/10/21 04:16:01;;;;;;;;;;;7.60;99.90;;;;;;5096781;28;19935;-71
2021/10/21 04:18:28;;;;;;;;;;;7.50;99.90;;;;;;5097404;28;19924;-70
2021/10/21 04:20:55;;;;;;;;;;;7.40;99.90;;;;;;5096959;28;19939;-70
2021/10/21 04:23:22;;;;;;;;;;;7.30;99.90;;;;;;5096792;28;20374;-70
2021/10/21 04:25:48;;;;;;;;;;;7.30;99.90;;;;;;5096786;28;20001;-70
2021/10/21 04:28:16;;;;;;;;;;;7.20;99.90;;;;;;5096642;28;19924;-70
2021/10/21 04:30:44;;;;;;;;;;;7.10;99.90;;;;;;5096591;28;20023;-70
2021/10/21 04:33:11;;;;;;;;;;;7.00;99.90;;;;;;5096478;28;19928;-70
2021/10/21 04:35:38;;;;;;;;;;;7.00;99.90;;;;;;5096512;28;19935;-70
2021/10/21 04:38:05;;;;;;;;;;;7.00;99.90;;;;;;5096655;28;19924;-70
2021/10/21 04:40:32;;;;;;;;;;;7.00;99.90;;;;;;5096315;28;19924;-70
2021/10/21 04:42:59;;;;;;;;;;;7.00;99.90;;;;;;5096344;28;19932;-70
2021/10/21 04:45:26;;;;;;;;;;;7.00;99.90;;;;;;5096263;28;19928;-70
2021/10/21 04:47:56;;;;;;;;;;;7.00;99.90;;;;;;5096436;28;19924;-70
2021/10/21 04:50:23;;;;;;;;;;;7.00;99.90;;;;;;5096177;28;20418;-70
2021/10/21 04:52:52;;;;;;;;;;;7.00;99.90;;;;;;5095958;28;19928;-71
2021/10/21 04:55:19;;;;;;;;;;;7.00;99.90;;;;;;5096590;28;19928;-70
2021/10/21 04:57:46;;;;;;;;;;;7.00;99.90;;;;;;5096038;28;20347;-70
2021/10/21 05:00:14;;;;;;;;;;;7.00;99.90;;;;;;5096051;28;19942;-70
2021/10/21 05:02:41;;;;;;;;;;;6.90;99.90;;;;;;5096114;28;20378;-70
2021/10/21 05:05:10;;;;;;;;;;;6.90;99.90;;;;;;5096050;28;19924;-70
2021/10/21 05:07:37;;;;;;;;;;;6.80;99.90;;;;;;5096126;28;19924;-70
2021/10/21 05:10:04;;;;;;;;;;;6.80;99.90;;;;;;5095961;28;19934;-70
2021/10/21 05:12:31;;;;;;;;;;;6.70;99.90;;;;;;5095842;28;19924;-70
2021/10/21 05:14:58;;;;;;;;;;;6.70;99.90;;;;;;5096249;28;19931;-70
2021/10/21 05:17:24;;;;;;;;;;;6.60;99.90;;;;;;5095936;28;19949;-70
2021/10/21 05:19:51;;;;;;;;;;;6.60;99.90;;;;;;5095758;28;19951;-70
2021/10/21 05:22:19;;;;;;;;;;;6.60;99.90;;;;;;5095521;28;20374;-70
2021/10/21 05:24:46;;;;;;;;;;;6.50;99.90;;;;;;5095874;28;19923;-70
2021/10/21 05:27:13;;;;;;;;;;;6.50;99.90;;;;;;5095752;28;19928;-70
2021/10/21 05:29:40;;;;;;;;;;;6.40;99.90;;;;;;5094988;28;19924;-70
2021/10/21 05:32:07;;;;;;;;;;;6.40;99.90;;;;;;5095549;28;19934;-70
2021/10/21 05:34:34;;;;;;;;;;;6.30;99.90;;;;;;5095570;28;19932;-70
2021/10/21 05:37:01;;;;;;;;;;;6.30;99.90;;;;;;5095672;28;19928;-70
2021/10/21 05:39:30;;;;;;;;;;;6.30;99.90;;;;;;5095338;28;20025;-70
2021/10/21 05:41:57;;;;;;;;;;;6.30;99.90;;;;;;5095166;28;19935;-70
2021/10/21 05:44:24;;;;;;;;;;;6.30;99.90;;;;;;5095487;28;19924;-70
2021/10/21 05:46:50;;;;;;;;;;;6.20;99.90;;;;;;5095530;28;19928;-70
2021/10/21 05:49:17;;;;;;;;;;;6.20;99.90;;;;;;5095270;28;19924;-70
2021/10/21 05:51:44;;;;;;;;;;;6.10;99.90;;;;;;5095150;28;20367;-70
2021/10/21 05:54:11;;;;;;;;;;;6.10;99.90;;;;;;5095058;28;20363;-70
2021/10/21 05:56:39;;;;;;;;;;;6.10;99.90;;;;;;5095292;28;19935;-70
2021/10/21 05:59:06;;;;;;;;;;;6.00;99.90;;;;;;5105221;28;19923;-70
2021/10/21 06:01:33;;;;;;;;;;;6.10;99.90;;;;;;5115952;28;19934;-70
2021/10/21 06:04:00;;;;;;;;;;;6.00;99.90;;;;;;5115245;28;19927;-70
2021/10/21 06:06:27;;;;;;;;;;;6.00;99.90;;;;;;5115523;28;19923;-70
2021/10/21 06:08:54;;;;;;;;;;;5.90;99.90;;;;;;5115438;28;20352;-71
2021/10/21 06:11:21;;;;;;;;;;;5.90;99.90;;;;;;5115407;28;19935;-70
2021/10/21 06:13:49;;;;;;;;;;;5.90;99.90;;;;;;5115537;28;19934;-70
2021/10/21 06:16:16;;;;;;;;;;;5.80;99.90;;;;;;5115386;28;19930;-70
2021/10/21 06:18:43;;;;;;;;;;;5.80;99.90;;;;;;5115507;28;19924;-70
2021/10/21 06:21:12;;;;;;;;;;;5.70;99.90;;;;;;5115457;28;20271;-70
2021/10/21 06:23:39;;;;;;;;;;;5.80;99.90;;;;;;5115503;28;19982;-70
2021/10/21 06:26:05;;;;;;;;;;;5.80;99.90;;;;;;5115769;28;19923;-70
2021/10/21 06:28:32;;;;;;;;;;;5.70;99.90;;;;;;5115467;28;19924;-70
2021/10/21 06:31:01;;;;;;;;;;;5.70;99.90;;;;;;5115166;28;20356;-70
2021/10/21 06:33:27;;;;;;;;;;;5.70;99.90;;;;;;5115355;28;19924;-70
2021/10/21 06:35:54;;;;;;;;;;;5.70;99.90;;;;;;5115233;28;19924;-70
2021/10/21 06:38:21;;;;;;;;;;;5.70;99.90;;;;;;5115267;28;19954;-70
2021/10/21 06:40:48;;;;;;;;;;;5.70;99.90;;;;;;5116646;28;20363;-70
2021/10/21 06:43:15;;;;;;;;;;;5.70;99.90;;;;;;5119275;28;20335;-70
2021/10/21 06:45:42;;;;;;;;;;;5.70;99.90;;;;;;5119028;28;19928;-70
2021/10/21 06:48:10;;;;;;;;;;;5.70;99.90;;;;;;5119051;28;19930;-70
2021/10/21 06:50:37;;;;;;;;;;;5.70;99.90;;;;;;5119127;28;19930;-70
2021/10/21 06:53:04;;;;;;;;;;;5.70;99.90;;;;;;5118335;28;20279;-70
2021/10/21 06:55:31;;;;;;;;;;;5.70;99.90;;;;;;5118474;28;20001;-70
2021/10/21 06:57:58;;;;;;;;;;;5.70;99.90;;;;;;5118841;28;19935;-70
2021/10/21 07:00:25;;;;;;;;;;;5.70;99.90;;;;;;5118707;28;20359;-70
2021/10/21 07:02:52;;;;;;;;;;;5.70;99.90;;;;;;5118554;28;19923;-70
2021/10/21 07:05:22;;;;;;;;;;;5.70;99.90;;;;;;5118907;28;19934;-70
2021/10/21 07:07:49;;;;;;;;;;;5.70;99.90;;;;;;5118617;28;20348;-70
2021/10/21 07:10:16;;;;;;;;;;;5.70;99.90;;;;;;5118454;28;19934;-70
2021/10/21 07:12:45;;;;;;;;;;;5.70;99.90;;;;;;5118743;28;19953;-70
2021/10/21 07:15:12;;;;;;;;;;;5.70;99.90;;;;;;5118504;28;19924;-70
2021/10/21 07:17:40;;;;;;;;;;;5.70;99.90;;;;;;5118573;28;19923;-70
2021/10/21 07:20:07;;;;;;;;;;;5.70;99.90;;;;;;5118338;28;19984;-70
2021/10/21 07:22:36;;;;;;;;;;;5.80;99.90;;;;;;5118569;28;20248;-70
2021/10/21 07:25:02;;;;;;;;;;;5.80;99.90;;;;;;5118171;28;19928;-70
2021/10/21 07:27:29;;;;;;;;;;;5.80;99.90;;;;;;5118329;28;19928;-70
2021/10/21 07:29:56;;;;;;;;;;;5.80;99.90;;;;;;5118186;28;19924;-70
2021/10/21 07:32:23;;;;;;;;;;;5.80;99.90;;;;;;5118254;28;19924;-70
2021/10/21 07:34:50;;;;;;;;;;;5.80;99.90;;;;;;5118068;28;20271;-70
2021/10/21 07:37:17;;;;;;;;;;;5.80;99.90;;;;;;5118255;28;19988;-70
2021/10/21 07:39:45;;;;;;;;;;;5.90;99.90;;;;;;5118211;28;20274;-70
2021/10/21 07:42:12;;;;;;;;;;;6.00;99.90;;;;;;5117984;28;19946;-70
2021/10/21 07:44:39;;;;;;;;;;;6.00;99.90;;;;;;5118014;28;19934;-70
2021/10/21 07:47:06;;;;;;;;;;;6.00;99.90;;;;;;5117879;28;19924;-70
2021/10/21 07:49:33;;;;;;;;;;;6.10;99.90;;;;;;5117955;28;19928;-70
2021/10/21 07:52:01;;;;;;;;;;;6.10;99.90;;;;;;5117574;28;19923;-70
2021/10/21 07:54:30;;;;;;;;;;;6.10;99.90;;;;;;5117683;28;20217;-70
2021/10/21 07:56:58;;;;;;;;;;;6.20;99.90;;;;;;5118040;28;19989;-70
2021/10/21 07:59:25;;;;;;;;;;;6.20;99.90;;;;;;5117755;28;19931;-70
2021/10/21 08:01:52;;;;;;;;;;;6.30;99.90;;;;;;5117501;28;19927;-70
2021/10/21 08:04:19;;;;;;;;;;;6.40;99.90;;;;;;5117598;28;19930;-70
2021/10/21 08:06:46;;;;;;;;;;;6.40;99.90;;;;;;5117648;28;19923;-70
2021/10/21 08:09:13;;;;;;;;;;;6.40;99.90;;;;;;5117363;28;20344;-70
2021/10/21 08:11:40;;;;;;;;;;;6.50;99.90;;;;;;5117464;28;19938;-70
2021/10/21 08:14:08;;;;;;;;;;;6.50;99.90;;;;;;5117305;28;19932;-70
2021/10/21 08:16:35;;;;;;;;;;;6.50;99.90;;;;;;5117231;28;19923;-70
2021/10/21 08:19:02;;;;;;;;;;;6.60;99.90;;;;;;5117534;28;19924;-70
2021/10/21 08:21:30;;;;;;;;;;;6.60;99.90;;;;;;5117450;28;19932;-70
2021/10/21 08:23:58;;;;;;;;;;;6.70;99.90;;;;;;5117156;28;19924;-71
2021/10/21 08:26:25;;;;;;;;;;;6.70;99.90;;;;;;5117051;28;19923;-70
2021/10/21 08:28:52;;;;;;;;;;;6.70;99.90;;;;;;5117049;28;20348;-70
2021/10/21 08:31:20;;;;;;;;;;;6.80;99.90;;;;;;5116947;28;19997;-70
2021/10/21 08:33:47;;;;;;;;;;;6.80;99.90;;;;;;5117167;28;19924;-70
2021/10/21 08:36:15;;;;;;;;;;;6.80;99.90;;;;;;5117129;28;19934;-70
2021/10/21 08:38:42;;;;;;;;;;;6.80;99.90;;;;;;5117110;28;19923;-70
2021/10/21 08:41:09;;;;;;;;;;;6.80;99.90;;;;;;5116949;28;20002;-70
2021/10/21 08:43:36;;;;;;;;;;;6.90;99.90;;;;;;5116686;28;19967;-70
2021/10/21 08:46:03;;;;;;;;;;;6.90;99.90;;;;;;5116968;28;19970;-70
2021/10/21 08:48:31;;;;;;;;;;;7.00;99.90;;;;;;5116934;28;19938;-70
2021/10/21 08:50:58;;;;;;;;;;;7.00;99.90;;;;;;5116622;28;20370;-70
2021/10/21 08:53:25;;;;;;;;;;;7.00;99.90;;;;;;5116438;28;19927;-70
2021/10/21 08:55:52;;;;;;;;;;;7.10;99.90;;;;;;5116517;28;20256;-70
2021/10/21 08:58:19;;;;;;;;;;;7.20;99.90;;;;;;5116458;28;19934;-70
2021/10/21 09:00:52;;;;;;;;;;;7.20;99.90;;;;;;5116651;28;19950;-70
2021/10/21 09:03:34;;;;;;;;;;;7.20;99.90;;;;;;5115787;28;19924;-70
2021/10/21 09:06:22;;;;;;;;;;;7.20;99.90;;;;;;5115643;28;20018;-70
2021/10/21 09:08:49;;;;;;;;;;;7.30;99.90;;;;;;5116531;28;20400;-70
2021/10/21 09:11:19;;;;;;;;;;;7.30;99.90;;;;;;5116299;28;19942;-70
2021/10/21 09:13:47;;;;;;;;;;;7.40;99.90;;;;;;5116580;28;19996;-70
2021/10/21 09:16:17;;;;;;;;;;;7.40;99.90;;;;;;5116200;28;19927;-70
2021/10/21 09:18:44;;;;;;;;;;;7.40;99.90;;;;;;5116048;28;20348;-70
2021/10/21 09:21:13;;;;;;;;;;;7.40;99.90;;;;;;5116030;28;19978;-70
2021/10/21 09:23:40;;;;;;;;;;;7.50;99.90;;;;;;5115975;28;19927;-70
2021/10/21 09:26:09;;;;;;;;;;;7.50;99.90;;;;;;5116575;28;19946;-70
2021/10/21 09:28:36;;;;;;;;;;;7.50;99.90;;;;;;5115874;28;19953;-70
2021/10/21 09:31:04;;;;;;;;;;;7.50;99.90;;;;;;5115860;28;19924;-70
2021/10/21 09:33:37;;;;;;;;;;;7.60;99.90;;;;;;5115870;28;19977;-70
2021/10/21 09:36:04;;;;;;;;;;;7.60;99.90;;;;;;5115839;28;20302;-70
2021/10/21 09:38:33;;;;;;;;;;;7.60;99.90;;;;;;5115979;28;20267;-70
2021/10/21 09:41:16;;;;;;;;;;;7.60;99.90;;;;;;5115989;28;19935;-70
2021/10/21 09:43:43;;;;;;;;;;;7.70;99.90;;;;;;5115786;28;19988;-70
2021/10/21 09:46:24;;;;;;;;;;;7.70;99.90;;;;;;5115754;28;19923;-70
2021/10/21 09:48:54;;;;;;;;;;;7.70;99.90;;;;;;5115148;28;19930;-71
2021/10/21 09:51:35;;;;;;;;;;;7.70;99.90;;;;;;5115404;28;19934;-70
2021/10/21 09:54:05;;;;;;;;;;;7.80;99.90;;;;;;5115527;28;19924;-70
2021/10/21 09:56:32;;;;;;;;;;;7.80;99.90;;;;;;5115932;28;20366;-70
2021/10/21 09:59:05;;;;;;;;;;;7.90;99.90;;;;;;5115434;28;19934;-70
2021/10/21 10:01:34;;;;;;;;;;;7.90;99.90;;;;;;5115550;28;20242;-70
2021/10/21 10:04:01;;;;;;;;;;;7.90;99.90;;;;;;5115398;28;20350;-70
2021/10/21 10:06:28;;;;;;;;;;;7.90;99.90;;;;;;5115517;28;19924;-70
2021/10/21 10:08:55;;;;;;;;;;;8.00;99.90;;;;;;5115639;28;20001;-70
2021/10/21 10:11:23;;;;;;;;;;;8.00;99.90;;;;;;5115409;28;19934;-70
2021/10/21 10:13:51;;;;;;;;;;;8.00;99.90;;;;;;5115561;28;19930;-70
2021/10/21 10:16:18;;;;;;;;;;;8.00;99.90;;;;;;5119575;28;19923;-70
2021/10/21 10:18:45;;;;;;;;;;;8.00;99.90;;;;;;5119749;28;20348;-70
2021/10/21 10:21:12;;;;;;;;;;;8.10;99.90;;;;;;5119706;28;19924;-70
2021/10/21 10:23:40;;;;;;;;;;;8.10;99.90;;;;;;5119435;28;20355;-70
2021/10/21 10:26:06;;;;;;;;;;;8.10;99.90;;;;;;5119597;28;19932;-70
2021/10/21 10:28:48;;;;;;;;;;;8.10;99.90;;;;;;5119396;28;19924;-70
2021/10/21 10:31:18;;;;;;;;;;;8.10;99.90;;;;;;5119218;28;20345;-70
2021/10/21 10:33:45;;;;;;;;;;;8.20;99.90;;;;;;5119195;28;19924;-70
2021/10/21 10:36:28;;;;;;;;;;;8.20;99.90;;;;;;5119359;28;19923;-70
2021/10/21 10:38:55;;;;;;;;;;;8.20;99.90;;;;;;5119186;28;19932;-70
2021/10/21 10:41:55;;;;;;;;;;;8.20;99.90;;;;;;5119150;28;20362;-70
2021/10/21 10:44:40;;;;;;;;;;;8.30;99.90;;;;;;5036871;28;19965;-70
2021/10/21 10:47:09;;;;;;;;;;;8.30;99.90;;;;;;5036876;28;20369;-70
2021/10/21 10:49:41;;;;;;;;;;;8.30;99.90;;;;;;5036798;28;19932;-70
2021/10/21 10:52:10;;;;;;;;;;;8.30;99.90;;;;;;5036843;28;20400;-70
2021/10/21 10:55:03;;;;;;;;;;;8.40;99.90;;;;;;5036592;28;19929;-70
2021/10/21 10:57:49;;;;;;;;;;;8.40;99.90;;;;;;4977763;28;19926;-70
2021/10/21 11:00:35;;;;;;;;;;;8.50;99.90;;;;;;4977874;28;19937;-70
2021/10/21 11:03:03;;;;;;;;;;;8.50;99.90;;;;;;4977713;28;19969;-70
2021/10/21 11:05:45;;;;;;;;;;;8.50;99.90;;;;;;4977977;28;19930;-70
2021/10/21 11:08:12;;;;;;;;;;;8.50;99.90;;;;;;4977184;28;19948;-70
2021/10/21 11:10:40;;;;;;;;;;;8.50;99.90;;;;;;4977404;28;19926;-70
2021/10/21 11:13:20;;;;;;;;;;;8.50;99.90;;;;;;4977470;28;19937;-70
2021/10/21 11:15:47;;;;;;;;;;;8.50;99.90;;;;;;5033069;28;20252;-70
2021/10/21 11:18:23;;;;;;;;;;;8.60;99.90;;;;;;5056453;28;20452;-70
2021/10/21 11:20:49;;;;;;;;;;;8.60;99.90;;;;;;5056241;28;19933;-70
2021/10/21 11:23:43;;;;;;;;;;;8.60;99.90;;;;;;5056033;28;19925;-70
2021/10/21 11:26:10;;;;;;;;;;;8.60;99.90;;;;;;4957103;28;19926;-70
2021/10/21 11:28:37;;;;;;;;;;;8.60;99.90;;;;;;4957955;29;20360;-70
2021/10/21 11:31:04;;;;;;;;;;;8.70;99.90;;;;;;4957880;29;19926;-70
2021/10/21 11:33:33;;;;;;;;;;;8.70;99.90;;;;;;5004891;28;20341;-70
2021/10/21 11:35:59;;;;;;;;;;;8.80;99.90;;;;;;5035939;28;19940;-70
2021/10/21 11:38:26;;;;;;;;;;;8.80;99.90;;;;;;5035890;28;19944;-70
2021/10/21 11:40:54;;;;;;;;;;;8.80;99.90;;;;;;5035872;28;19925;-70
2021/10/21 11:43:22;;;;;;;;;;;8.80;99.90;;;;;;5035730;28;19925;-70
2021/10/21 11:45:51;;;;;;;;;;;8.90;99.90;;;;;;5035680;28;19925;-70
2021/10/21 11:48:18;;;;;;;;;;;8.80;99.90;;;;;;5035811;28;20345;-70
2021/10/21 11:50:47;;;;;;;;;;;8.90;99.90;;;;;;5035733;28;19987;-70
2021/10/21 11:53:14;;;;;;;;;;;8.80;99.90;;;;;;5035497;28;19929;-70
2021/10/21 11:55:41;;;;;;;;;;;8.80;99.90;;;;;;5035628;28;19972;-70
2021/10/21 11:58:11;;;;;;;;;;;8.90;99.90;;;;;;5035553;28;20250;-70
2021/10/21 12:00:38;;;;;;;;;;;8.90;99.90;;;;;;5035545;28;19925;-70
2021/10/21 12:03:05;;;;;;;;;;;9.00;99.90;;;;;;5116194;28;20018;-70
2021/10/21 12:05:32;;;;;;;;;;;9.00;99.90;;;;;;5117642;28;19930;-70
2021/10/21 12:08:01;;;;;;;;;;;9.00;99.90;;;;;;5117665;28;19938;-70
2021/10/21 12:10:29;;;;;;;;;;;9.00;99.90;;;;;;5117663;28;19924;-70
2021/10/21 12:12:56;;;;;;;;;;;8.90;99.90;;;;;;5117434;28;19923;-70
2021/10/21 12:15:24;;;;;;;;;;;8.90;99.90;;;;;;5117340;28;20310;-70
2021/10/21 12:17:51;;;;;;;;;;;8.90;99.90;;;;;;5117567;28;19984;-70
2021/10/21 12:20:29;;;;;;;;;;;8.90;99.90;;;;;;5117314;28;19934;-70
2021/10/21 12:22:56;;;;;;;;;;;8.90;99.90;;;;;;5117475;28;20304;-70
2021/10/21 12:25:32;;;;;;;;;;;9.00;99.90;;;;;;5117311;28;19924;-70
2021/10/21 12:28:00;;;;;;;;;;;8.90;99.90;;;;;;5117453;28;20253;-70
2021/10/21 12:30:26;;;;;;;;;;;9.00;99.90;;;;;;5117146;28;19923;-70
2021/10/21 12:33:05;;;;;;;;;;;9.10;99.90;;;;;;5117202;28;20359;-69
2021/10/21 12:35:33;;;;;;;;;;;9.10;99.90;;;;;;5099201;28;19924;-70
2021/10/21 12:38:04;;;;;;;;;;;9.10;99.90;;;;;;5115822;28;19970;-70
2021/10/21 12:40:34;;;;;;;;;;;9.10;99.90;;;;;;5117306;28;19924;-70
2021/10/21 12:43:11;;;;;;;;;;;9.10;99.90;;;;;;5117037;28;19934;-70
2021/10/21 12:45:38;;;;;;;;;;;9.10;99.90;;;;;;5116755;28;19989;-70
2021/10/21 12:48:20;;;;;;;;;;;9.10;99.90;;;;;;5117049;28;19938;-70
2021/10/21 12:50:46;;;;;;;;;;;9.20;99.90;;;;;;5116692;28;19924;-70
2021/10/21 12:53:17;;;;;;;;;;;9.20;99.90;;;;;;5116671;28;19928;-70
2021/10/21 12:55:45;;;;;;;;;;;9.30;99.90;;;;;;5116714;28;19924;-70
2021/10/21 12:58:19;;;;;;;;;;;9.30;99.90;;;;;;5116470;28;20353;-70
2021/10/21 13:00:47;;;;;;;;;;;9.30;99.90;;;;;;5116541;28;20279;-70
2021/10/21 13:03:17;;;;;;;;;;;9.30;99.90;;;;;;5116734;28;19924;-70
2021/10/21 13:05:44;;;;;;;;;;;9.30;99.90;;;;;;5116245;28;19957;-70
2021/10/21 13:08:11;;;;;;;;;;;9.30;99.90;;;;;;5116367;28;19930;-70
2021/10/21 13:10:40;;;;;;;;;;;9.30;99.90;;;;;;5116303;28;20344;-70
2021/10/21 13:13:09;;;;;;;;;;;9.30;99.90;;;;;;5116483;28;19923;-70
2021/10/21 13:15:36;;;;;;;;;;;9.40;99.90;;;;;;5116132;28;19957;-70
2021/10/21 13:18:03;;;;;;;;;;;9.50;99.90;;;;;;5116319;28;19931;-70
2021/10/21 13:20:30;;;;;;;;;;;9.50;99.90;;;;;;5116038;28;20381;-70
2021/10/21 13:22:57;;;;;;;;;;;9.50;99.90;;;;;;5116068;28;19930;-70
2021/10/21 13:25:24;;;;;;;;;;;9.50;99.90;;;;;;5116356;28;19934;-70
2021/10/21 13:27:53;;;;;;;;;;;9.50;99.90;;;;;;5116063;28;20024;-70
2021/10/21 13:30:21;;;;;;;;;;;9.50;99.90;;;;;;5115918;28;19970;-70
2021/10/21 13:32:48;;;;;;;;;;;9.50;99.90;;;;;;5116080;28;20352;-70
2021/10/21 13:35:15;;;;;;;;;;;9.50;99.90;;;;;;5116298;28;19924;-70
2021/10/21 13:37:43;;;;;;;;;;;9.50;99.90;;;;;;5115644;28;20368;-70
2021/10/21 13:40:12;;;;;;;;;;;9.50;99.90;;;;;;5115720;28;19938;-70
2021/10/21 13:42:42;;;;;;;;;;;9.50;99.90;;;;;;5115534;28;19924;-70
2021/10/21 13:45:09;;;;;;;;;;;9.50;99.90;;;;;;5114452;28;19953;-69
2021/10/21 13:47:37;;;;;;;;;;;9.40;99.90;;;;;;5115114;28;20022;-70
2021/10/21 13:50:05;;;;;;;;;;;9.40;99.90;;;;;;5115019;28;20344;-70
2021/10/21 13:52:33;;;;;;;;;;;9.50;99.90;;;;;;5116470;28;19924;-70
2021/10/21 13:55:02;;;;;;;;;;;9.50;99.90;;;;;;5116949;28;19924;-69
2021/10/21 13:57:31;;;;;;;;;;;9.50;99.90;;;;;;5115854;28;19955;-69
2021/10/21 13:59:59;;;;;;;;;;;9.50;99.90;;;;;;5115735;28;19924;-69
2021/10/21 14:02:27;;;;;;;;;;;9.50;99.90;;;;;;5115642;28;19927;-69
2021/10/21 14:04:55;;;;;;;;;;;9.50;99.90;;;;;;5115473;28;19934;-73
2021/10/21 14:07:22;;;;;;;;;;;9.50;99.90;;;;;;5115417;28;19930;-69
2021/10/21 14:09:49;;;;;;;;;;;9.50;99.90;;;;;;5115539;28;19923;-70
2021/10/21 14:12:16;;;;;;;;;;;9.50;99.90;;;;;;5115548;28;19938;-75
2021/10/21 14:14:43;;;;;;;;;;;9.50;99.90;;;;;;5115524;28;19934;-70
2021/10/21 14:17:09;;;;;;;;;;;9.50;99.90;;;;;;5115827;28;19935;-70
2021/10/21 14:19:36;;;;;;;;;;;9.50;99.90;;;;;;5115591;28;19924;-70
2021/10/21 14:22:05;;;;;;;;;;;9.50;99.90;;;;;;5115293;28;20386;-70
2021/10/21 14:24:34;;;;;;;;;;;9.50;99.90;;;;;;5115409;28;20028;-70
2021/10/21 14:27:02;;;;;;;;;;;9.50;99.90;;;;;;5115477;28;19932;-70
2021/10/21 14:29:29;;;;;;;;;;;9.50;99.90;;;;;;5115416;28;19923;-69
2021/10/21 14:31:56;;;;;;;;;;;9.50;99.90;;;;;;5115509;28;20302;-70
2021/10/21 14:34:22;;;;;;;;;;;9.50;99.90;;;;;;5115371;28;19989;-70
2021/10/21 14:36:49;;;;;;;;;;;9.40;99.90;;;;;;5115876;28;19950;-70